Terminal Aerodrome Forecast
Issued by NWS

Home | Current Version | Previous Version | Text Only | Print | Product List | Glossary On
Versions: 1 2 3 4 5 6 7 8 9 10 11 12 13 14 15
000
FTUS42 KJAX 282349
TAFCRG
TAF
KCRG 282349Z 2900/2924 30007KT P6SM VCSH SCT050 BKN150 BKN250
     FM290300 26004KT P6SM SCT080 SCT250
     FM291400 31007KT P6SM FEW050 SCT250
     FM291800 09011KT P6SM SCT050
     FM292100 12010KT P6SM FEW050 SCT250=

USA.gov is the U.S. government's official web portal to all federal, state and local government web resources and services.